Time;durP1;ratioP1;P1;durP2;ratioP2;P2;SDS_P1;SDS_P2;PMS_P1;PMS_P2;Temp;Humidity;BMP_temperature;BMP_pressure;BME280_temperature;BME280_humidity;BME280_pressure;Samples;Min_cycle;Max_cycle;Signal;HPM_P1;HPM_P2
2023/01/07 00:02:18;;;;;;;27.55;18.13;;;9.40;99.90;;;;;;5013217;28;20046;-89
2023/01/07 00:04:44;;;;;;;27.58;18.70;;;9.50;99.90;;;;;;5015437;28;20052;-89
2023/01/07 00:07:09;;;;;;;27.65;18.08;;;9.40;99.90;;;;;;5026527;28;20084;-89
2023/01/07 00:09:36;;;;;;;29.15;18.20;;;9.50;99.90;;;;;;5021170;28;20050;-88
2023/01/07 00:12:02;;;;;;;30.65;18.95;;;9.50;99.90;;;;;;5012259;28;20080;-91
2023/01/07 00:14:28;;;;;;;30.52;18.42;;;9.50;99.90;;;;;;5012993;28;20084;-89
2023/01/07 00:16:53;;;;;;;29.48;18.20;;;9.50;99.90;;;;;;5030066;28;20061;-89
2023/01/07 00:19:21;;;;;;;27.40;17.92;;;9.70;99.90;;;;;;5010827;28;20049;-90
2023/01/07 00:21:46;;;;;;;26.10;17.35;;;10.20;99.90;;;;;;5038769;28;20041;-89
2023/01/07 00:24:12;;;;;;;27.20;18.23;;;9.60;99.90;;;;;;5009320;28;20112;-89
2023/01/07 00:26:39;;;;;;;27.45;18.88;;;9.60;99.90;;;;;;5009457;28;20072;-89
2023/01/07 00:29:05;;;;;;;29.83;19.15;;;9.60;99.90;;;;;;5023761;28;20038;-89
2023/01/07 00:31:34;;;;;;;29.63;18.23;;;9.70;99.90;;;;;;5012840;28;20065;-90
2023/01/07 00:36:29;;;;;;;31.88;19.52;;;9.80;99.90;;;;;;5025141;28;20068;-90
2023/01/07 00:38:57;;;;;;;28.85;17.85;;;9.80;99.90;;;;;;5012554;28;20464;-90
2023/01/07 00:41:23;;;;;;;30.40;17.75;;;9.80;99.90;;;;;;5025843;28;20136;-90
2023/01/07 00:43:48;;;;;;;28.65;18.38;;;9.80;99.90;;;;;;5025230;28;20534;-90
2023/01/07 00:46:14;;;;;;;31.38;19.38;;;9.80;99.90;;;;;;5025428;28;20068;-89
2023/01/07 00:48:41;;;;;;;28.40;19.50;;;10.10;99.90;;;;;;5021460;28;20436;-90
2023/01/07 00:51:09;;;;;;;27.02;18.92;;;10.90;99.90;;;;;;5008587;28;20073;-89
2023/01/07 00:53:35;;;;;;;28.38;19.15;;;9.90;99.90;;;;;;5023036;28;20069;-89
2023/01/07 00:56:00;;;;;;;30.15;19.00;;;9.90;99.90;;;;;;5029049;28;20500;-91
2023/01/07 00:58:26;;;;;;;30.58;19.42;;;9.90;99.90;;;;;;5029595;28;20115;-89
2023/01/07 01:00:57;;;;;;;33.67;20.40;;;9.90;99.90;;;;;;5012224;28;20057;-89
2023/01/07 01:03:23;;;;;;;33.33;18.73;;;9.90;99.90;;;;;;5019830;28;20559;-89
2023/01/07 01:05:49;;;;;;;28.13;18.75;;;10.00;99.90;;;;;;5009621;28;20501;-89
2023/01/07 01:08:16;;;;;;;30.33;19.33;;;10.00;99.90;;;;;;5028680;28;20056;-90
2023/01/07 01:10:43;;;;;;;31.38;19.95;;;10.00;99.90;;;;;;5029122;28;20095;-89
2023/01/07 01:13:15;;;;;;;31.00;19.98;;;10.00;99.90;;;;;;5019884;28;20045;-90
2023/01/07 01:15:43;;;;;;;32.10;20.30;;;10.00;99.90;;;;;;5010201;28;20073;-89
2023/01/07 01:18:09;;;;;;;28.17;18.35;;;10.00;99.90;;;;;;5008848;28;20042;-90
2023/01/07 01:20:35;;;;;;;32.63;20.30;;;10.00;99.90;;;;;;5010470;28;20049;-90
2023/01/07 01:23:00;;;;;;;29.48;19.55;;;10.10;99.90;;;;;;5010252;28;20046;-89
2023/01/07 01:25:26;;;;;;;33.55;21.70;;;10.00;99.90;;;;;;5037495;28;20057;-90
2023/01/07 01:27:52;;;;;;;30.05;19.85;;;10.10;99.90;;;;;;5010818;28;20056;-90
2023/01/07 01:30:17;;;;;;;30.30;20.33;;;10.30;99.90;;;;;;5012323;28;20045;-89
2023/01/07 01:32:43;;;;;;;32.90;21.10;;;10.10;99.90;;;;;;5027377;28;20049;-90
2023/01/07 01:35:11;;;;;;;31.25;20.55;;;10.10;99.90;;;;;;5029002;28;20045;-89
2023/01/07 01:37:36;;;;;;;28.35;20.13;;;10.20;99.90;;;;;;5011988;28;20045;-90
2023/01/07 01:40:04;;;;;;;31.10;20.08;;;10.10;99.90;;;;;;5018318;28;20053;-90
2023/01/07 01:42:30;;;;;;;29.00;19.67;;;10.10;99.90;;;;;;5013905;28;20049;-90
2023/01/07 01:45:00;;;;;;;27.83;20.25;;;10.20;99.90;;;;;;5002352;28;20085;-90
2023/01/07 01:47:40;;;;;;;30.70;20.85;;;10.60;99.90;;;;;;5017976;28;20412;-89
2023/01/07 01:50:25;;;;;;;29.50;19.63;;;10.10;99.90;;;;;;5028242;28;20049;-90
2023/01/07 01:52:54;;;;;;;27.08;19.25;;;10.20;99.90;;;;;;5028199;28;20049;-90
2023/01/07 01:55:25;;;;;;;28.63;20.25;;;10.10;99.90;;;;;;5015913;28;20045;-90
2023/01/07 01:57:55;;;;;;;27.58;19.13;;;10.10;99.90;;;;;;5029366;28;20132;-90
2023/01/07 02:00:23;;;;;;;29.30;19.02;;;10.10;99.90;;;;;;5008678;28;20403;-89
2023/01/07 02:02:53;;;;;;;28.33;19.40;;;10.20;99.90;;;;;;5026513;28;20045;-89
2023/01/07 02:05:20;;;;;;;30.23;19.10;;;10.10;99.90;;;;;;5021389;28;20057;-90
2023/01/07 02:07:51;;;;;;;24.58;19.02;;;10.20;99.90;;;;;;5023230;28;20302;-90
2023/01/07 02:10:24;;;;;;;26.87;19.43;;;10.20;99.90;;;;;;5010772;28;20076;-90
2023/01/07 02:13:31;;;;;;;27.23;19.23;;;9.60;99.90;;;;;;5010454;28;20155;-89
2023/01/07 02:16:31;;;;;;;26.88;19.48;;;10.20;99.90;;;;;;5028320;28;20390;-89
2023/01/07 02:19:23;;;;;;;25.30;18.60;;;10.20;99.90;;;;;;5014552;28;20054;-90
2023/01/07 02:21:51;;;;;;;28.67;18.95;;;9.60;99.90;;;;;;5025325;28;20472;-89
2023/01/07 02:24:55;;;;;;;28.48;19.15;;;10.20;99.90;;;;;;5023649;28;20053;-89
2023/01/07 02:27:24;;;;;;;25.15;18.45;;;10.20;99.90;;;;;;5026466;28;20136;-89
2023/01/07 02:30:31;;;;;;;26.67;19.85;;;10.20;99.90;;;;;;5027035;28;20049;-90
2023/01/07 02:33:28;;;;;;;29.00;20.10;;;10.20;99.90;;;;;;4981661;28;20053;-89
2023/01/07 02:36:30;;;;;;;26.00;19.23;;;10.20;99.90;;;;;;5025644;28;20057;-90
2023/01/07 02:39:13;;;;;;;;;;;10.70;99.90;;;;;;5020565;28;20462;-90
2023/01/07 02:41:54;;;;;;;25.55;17.98;;;9.80;99.90;;;;;;5026334;28;20034;-89
2023/01/07 02:44:52;;;;;;;25.13;18.20;;;10.20;99.90;;;;;;5027128;28;20049;-90
2023/01/07 02:47:20;;;;;;;25.58;17.95;;;10.20;99.90;;;;;;5023497;28;20050;-90
2023/01/07 02:49:47;;;;;;;25.23;18.73;;;10.20;99.90;;;;;;5022183;28;20091;-89
2023/01/07 02:52:24;;;;;;;24.92;18.83;;;10.20;99.90;;;;;;5029526;28;20045;-89
2023/01/07 02:54:56;;;;;;;25.38;18.50;;;10.20;99.90;;;;;;5022538;28;20045;-89
2023/01/07 02:57:51;;;;;;;26.85;19.58;;;10.20;99.90;;;;;;5027206;28;20099;-90
2023/01/07 03:00:29;;;;;;;26.08;18.15;;;10.20;99.90;;;;;;5033062;28;20468;-89
2023/01/07 03:03:19;;;;;;;26.25;18.33;;;10.20;99.90;;;;;;5031731;28;20375;-90
2023/01/07 03:06:04;;;;;;;24.50;17.23;;;10.20;99.90;;;;;;5008798;28;20132;-88
2023/01/07 03:09:02;;;;;;;26.27;18.98;;;10.20;99.90;;;;;;5031030;28;20053;-89
2023/01/07 03:11:40;;;;;;;24.35;18.02;;;10.20;99.90;;;;;;5032236;28;20061;-89
2023/01/07 03:14:24;;;;;;;26.17;18.17;;;10.20;99.90;;;;;;5032363;28;20480;-88
2023/01/07 03:16:56;;;;;;;25.00;17.67;;;10.20;99.90;;;;;;5031654;28;20156;-88
2023/01/07 03:19:43;;;;;;;25.20;18.15;;;10.20;99.90;;;;;;5004731;28;20045;-88
2023/01/07 03:22:10;;;;;;;24.15;17.27;;;11.00;99.90;;;;;;5014060;28;20064;-88
2023/01/07 03:24:39;;;;;;;23.70;17.33;;;10.20;99.90;;;;;;5012943;28;20464;-89
2023/01/07 03:27:16;;;;;;;24.38;17.52;;;10.20;99.90;;;;;;5025436;28;20404;-88
2023/01/07 03:29:42;;;;;;;21.95;17.33;;;10.70;99.90;;;;;;5030169;28;20053;-89
2023/01/07 03:32:22;;;;;;;21.58;16.83;;;10.40;99.90;;;;;;5032086;28;20071;-89
2023/01/07 03:34:48;;;;;;;24.98;16.50;;;10.10;99.90;;;;;;5015175;28;20127;-88
2023/01/07 03:37:18;;;;;;;23.23;18.00;;;10.40;99.90;;;;;;5031418;28;20053;-89
2023/01/07 03:39:46;;;;;;;20.50;16.55;;;10.10;99.90;;;;;;5013777;28;20121;-90
2023/01/07 03:45:19;;;;;;;22.27;16.15;;;10.60;99.90;;;;;;5032603;28;20077;-89
2023/01/07 03:47:58;;;;;;;21.17;16.33;;;10.40;99.90;;;;;;5031964;28;20120;-89
2023/01/07 03:50:27;;;;;;;21.85;15.95;;;10.10;99.90;;;;;;5017163;28;20046;-90
2023/01/07 03:52:58;;;;;;;18.10;15.02;;;10.50;99.90;;;;;;5013294;28;20061;-90
2023/01/07 03:55:24;;;;;;;22.48;15.32;;;10.10;99.90;;;;;;5010717;28;20049;-89
2023/01/07 03:57:49;;;;;;;19.40;15.95;;;10.10;99.90;;;;;;5025702;28;20069;-89
2023/01/07 04:00:15;;;;;;;18.17;15.02;;;10.10;99.90;;;;;;5006864;28;20056;-89
2023/01/07 04:02:41;;;;;;;19.63;15.80;;;10.10;99.90;;;;;;5001734;28;20496;-89
2023/01/07 04:05:08;;;;;;;21.00;15.43;;;10.10;99.90;;;;;;5026501;28;20128;-89
2023/01/07 04:07:34;;;;;;;20.80;15.98;;;10.00;99.90;;;;;;5013023;28;20215;-89
2023/01/07 04:09:59;;;;;;;19.48;15.15;;;10.00;99.90;;;;;;5012674;28;20535;-88
2023/01/07 04:12:25;;;;;;;21.90;15.90;;;10.00;99.90;;;;;;5027541;28;20042;-88
2023/01/07 04:14:51;;;;;;;18.42;14.82;;;9.90;99.90;;;;;;5011211;28;20116;-89
2023/01/07 04:17:16;;;;;;;19.17;14.70;;;9.90;99.90;;;;;;5008928;28;20099;-89
2023/01/07 04:19:42;;;;;;;16.92;14.63;;;10.00;99.90;;;;;;5026234;28;20100;-88
2023/01/07 04:22:09;;;;;;;20.88;14.95;;;10.10;99.90;;;;;;5014695;28;20042;-89
2023/01/07 04:24:35;;;;;;;20.63;14.93;;;9.30;99.90;;;;;;5019030;28;20049;-88
2023/01/07 04:27:01;;;;;;;16.52;14.07;;;9.90;99.90;;;;;;5011376;28;20045;-88
2023/01/07 04:29:26;;;;;;;18.95;14.55;;;9.90;99.90;;;;;;4998680;28;20038;-89
2023/01/07 04:31:52;;;;;;;17.92;13.95;;;9.90;99.90;;;;;;5009008;28;20423;-88
2023/01/07 04:34:18;;;;;;;17.75;14.05;;;9.90;99.90;;;;;;5022006;28;20496;-88
2023/01/07 04:36:44;;;;;;;19.15;14.30;;;10.00;99.90;;;;;;5009360;28;20076;-89
2023/01/07 04:39:12;;;;;;;16.33;13.65;;;9.90;99.90;;;;;;5002087;28;20475;-89
2023/01/07 04:41:38;;;;;;;17.23;13.13;;;10.00;99.90;;;;;;5020473;28;20049;-88
2023/01/07 04:44:04;;;;;;;16.15;13.18;;;10.00;99.90;;;;;;5020015;28;20053;-89
2023/01/07 04:46:30;;;;;;;16.27;12.82;;;10.00;99.90;;;;;;5028780;28;20112;-90
2023/01/07 04:48:57;;;;;;;18.02;12.75;;;10.00;99.90;;;;;;5010942;28;20137;-90
2023/01/07 04:51:22;;;;;;;17.13;12.93;;;10.00;99.90;;;;;;5008729;28;20415;-88
2023/01/07 04:53:48;;;;;;;15.15;13.00;;;10.00;99.90;;;;;;5019784;28;20045;-89
2023/01/07 04:56:14;;;;;;;17.70;12.52;;;10.80;99.90;;;;;;5027309;28;20045;-88
2023/01/07 04:58:39;;;;;;;14.70;12.30;;;10.00;99.90;;;;;;5027946;28;20037;-89
2023/01/07 05:01:05;;;;;;;14.85;12.23;;;10.00;99.90;;;;;;5008753;28;20038;-88
2023/01/07 05:03:33;;;;;;;15.50;12.27;;;10.00;99.90;;;;;;5008999;28;20045;-89
2023/01/07 05:05:59;;;;;;;15.63;11.55;;;10.00;99.90;;;;;;4999911;28;20049;-89
2023/01/07 05:08:25;;;;;;;16.25;11.85;;;10.00;99.90;;;;;;5025135;28;20119;-88
2023/01/07 05:10:51;;;;;;;14.57;11.57;;;10.00;99.90;;;;;;5009471;28;20408;-88
2023/01/07 05:13:19;;;;;;;12.18;10.88;;;10.00;99.90;;;;;;5027029;28;20049;-88
2023/01/07 05:15:45;;;;;;;13.57;12.00;;;10.00;99.90;;;;;;5020710;28;20133;-89
2023/01/07 05:18:11;;;;;;;12.43;10.93;;;10.00;99.90;;;;;;5013277;28;20045;-89
2023/01/07 05:20:37;;;;;;;14.38;11.30;;;10.00;99.90;;;;;;5011394;28;20053;-88
2023/01/07 05:23:04;;;;;;;13.52;10.88;;;10.00;99.90;;;;;;5011252;28;20054;-89
2023/01/07 05:25:31;;;;;;;12.55;10.95;;;9.90;99.90;;;;;;5006911;28;20052;-89
2023/01/07 05:27:57;;;;;;;15.23;10.60;;;9.90;99.90;;;;;;5022268;28;20084;-88
2023/01/07 05:30:26;;;;;;;11.90;10.00;;;10.00;99.90;;;;;;5011558;28;20057;-89
2023/01/07 05:32:54;;;;;;;14.13;11.27;;;10.00;99.90;;;;;;4994191;28;20217;-88
2023/01/07 05:35:19;;;;;;;11.45;10.18;;;9.90;99.90;;;;;;5023471;28;20060;-87
2023/01/07 05:37:45;;;;;;;14.25;10.25;;;10.00;99.90;;;;;;5022991;28;20407;-87
2023/01/07 05:40:11;;;;;;;13.48;10.10;;;9.90;99.90;;;;;;5010477;28;20037;-88
2023/01/07 05:42:37;;;;;;;13.07;9.98;;;10.00;99.90;;;;;;5019405;28;20147;-87
2023/01/07 05:45:06;;;;;;;12.90;9.50;;;10.00;99.90;;;;;;5025670;28;20103;-89
2023/01/07 05:47:31;;;;;;;11.70;10.30;;;9.90;99.90;;;;;;5014052;28;20167;-88
2023/01/07 05:49:57;;;;;;;11.98;9.75;;;10.00;99.90;;;;;;5008816;28;20133;-89
2023/01/07 05:52:23;;;;;;;13.18;9.75;;;9.90;99.90;;;;;;5022012;28;20098;-89
2023/01/07 05:54:48;;;;;;;11.40;9.85;;;9.90;99.90;;;;;;5026987;28;20551;-89
2023/01/07 05:57:14;;;;;;;10.15;8.98;;;9.90;99.90;;;;;;5025796;28;20041;-89
2023/01/07 05:59:39;;;;;;;11.38;9.05;;;9.90;99.90;;;;;;5011039;28;20049;-88
2023/01/07 06:02:05;;;;;;;10.90;9.80;;;9.90;99.90;;;;;;5011142;28;20045;-90
2023/01/07 06:04:32;;;;;;;13.32;9.82;;;10.00;99.90;;;;;;5027190;28;20077;-89
2023/01/07 06:06:58;;;;;;;10.82;9.68;;;10.00;99.90;;;;;;5011130;28;20049;-89
2023/01/07 06:09:24;;;;;;;14.27;9.15;;;9.90;99.90;;;;;;5027550;28;20037;-89
2023/01/07 06:11:49;;;;;;;10.43;9.27;;;10.50;99.90;;;;;;5026764;28;20866;-88
2023/01/07 06:14:15;;;;;;;10.68;8.80;;;10.00;99.90;;;;;;4997156;28;20053;-89
2023/01/07 06:16:41;;;;;;;11.57;8.43;;;9.90;99.90;;;;;;5023261;28;20042;-88
2023/01/07 06:19:06;;;;;;;12.77;9.45;;;10.00;99.90;;;;;;5026600;28;20474;-89
2023/01/07 06:21:32;;;;;;;9.85;8.85;;;10.00;99.90;;;;;;5008487;28;20522;-89
2023/01/07 06:23:57;;;;;;;9.75;8.60;;;10.00;99.90;;;;;;5025389;28;20127;-89
2023/01/07 06:26:26;;;;;;;10.10;8.48;;;9.90;99.90;;;;;;5006752;28;20038;-88
2023/01/07 06:28:54;;;;;;;9.32;8.25;;;10.00;99.90;;;;;;5015777;28;20041;-88
2023/01/07 06:31:20;;;;;;;9.68;8.68;;;10.00;99.90;;;;;;5020523;28;20049;-88
2023/01/07 06:33:45;;;;;;;11.20;8.00;;;10.00;99.90;;;;;;5029738;28;20463;-89
2023/01/07 06:36:11;;;;;;;10.75;7.70;;;10.00;99.90;;;;;;5008081;28;20077;-88
2023/01/07 06:38:37;;;;;;;10.27;8.07;;;9.90;99.90;;;;;;5022741;28;20399;-89
2023/01/07 06:41:02;;;;;;;8.20;7.40;;;10.00;99.90;;;;;;5025197;28;20052;-90
2023/01/07 06:43:29;;;;;;;11.32;8.07;;;10.00;99.90;;;;;;5007405;28;20048;-89
2023/01/07 06:45:55;;;;;;;9.43;7.65;;;9.90;99.90;;;;;;5018830;28;20100;-89
2023/01/07 06:48:20;;;;;;;9.32;7.57;;;9.90;99.90;;;;;;5024022;28;20053;-91
2023/01/07 06:50:46;;;;;;;9.48;8.05;;;9.90;99.90;;;;;;5028321;28;20503;-90
2023/01/07 06:53:12;;;;;;;8.30;7.30;;;9.90;99.90;;;;;;5012192;28;20049;-89
2023/01/07 06:55:37;;;;;;;8.70;7.28;;;9.90;99.90;;;;;;5011920;28;20077;-89
2023/01/07 06:58:03;;;;;;;7.90;7.07;;;9.90;99.90;;;;;;5018441;28;20481;-90
2023/01/07 07:00:29;;;;;;;9.20;8.20;;;9.90;99.90;;;;;;5023489;28;20044;-90
2023/01/07 07:02:54;;;;;;;10.15;7.68;;;9.90;99.90;;;;;;5008445;28;20049;-89
2023/01/07 07:05:20;;;;;;;10.20;6.97;;;9.90;99.90;;;;;;5027184;28;20041;-89
2023/01/07 07:07:45;;;;;;;8.27;7.20;;;9.90;99.90;;;;;;5009533;28;20099;-89
2023/01/07 07:10:11;;;;;;;9.35;7.25;;;9.90;99.90;;;;;;5014235;28;20125;-90
2023/01/07 07:12:38;;;;;;;8.60;7.10;;;9.90;99.90;;;;;;5010530;28;20143;-90
2023/01/07 07:15:05;;;;;;;13.82;7.25;;;9.90;99.90;;;;;;5022169;28;20096;-89
2023/01/07 07:17:31;;;;;;;8.63;7.70;;;9.90;99.90;;;;;;5026165;28;20045;-90
2023/01/07 07:19:57;;;;;;;8.20;7.40;;;9.90;99.90;;;;;;5026751;28;20095;-90
2023/01/07 07:22:22;;;;;;;9.70;7.10;;;9.90;99.90;;;;;;5026791;28;20109;-91
2023/01/07 07:24:48;;;;;;;9.13;7.75;;;9.90;99.90;;;;;;5007319;28;20052;-90
2023/01/07 07:27:15;;;;;;;9.95;6.80;;;9.90;99.90;;;;;;5010621;28;20053;-90
2023/01/07 07:29:40;;;;;;;7.53;6.35;;;9.90;99.90;;;;;;5023516;28;20392;-89
2023/01/07 07:32:06;;;;;;;7.88;7.07;;;9.70;99.90;;;;;;5008281;28;20049;-88
2023/01/07 07:34:33;;;;;;;9.95;6.82;;;9.90;99.90;;;;;;5023719;28;20057;-93
2023/01/07 07:36:58;;;;;;;8.85;6.18;;;9.80;99.90;;;;;;5021030;28;20042;-88
2023/01/07 07:39:24;;;;;;;7.13;5.78;;;9.90;99.90;;;;;;5031297;28;20041;-87
2023/01/07 07:41:49;;;;;;;7.65;6.30;;;9.80;99.90;;;;;;5013826;28;20044;-90
2023/01/07 07:44:15;;;;;;;8.05;6.40;;;9.80;99.90;;;;;;5030690;28;20515;-90
2023/01/07 07:46:41;;;;;;;6.00;5.40;;;9.70;99.90;;;;;;5014218;28;20337;-89
2023/01/07 07:49:06;;;;;;;6.60;5.68;;;9.90;99.90;;;;;;5014313;28;20372;-88
2023/01/07 07:51:32;;;;;;;7.90;6.15;;;9.70;99.90;;;;;;4994355;28;20057;-89
2023/01/07 07:53:57;;;;;;;6.85;6.00;;;9.70;99.90;;;;;;5027156;28;20049;-89
2023/01/07 07:56:23;;;;;;;8.77;6.53;;;9.70;99.90;;;;;;5030352;28;20053;-89
2023/01/07 07:58:49;;;;;;;6.30;5.65;;;9.60;99.90;;;;;;5013407;28;20456;-89
2023/01/07 08:01:14;;;;;;;8.13;5.75;;;9.60;99.90;;;;;;5013440;28;20057;-90
2023/01/07 08:03:40;;;;;;;8.05;6.00;;;9.60;99.90;;;;;;5004760;28;20047;-90
2023/01/07 08:06:06;;;;;;;6.13;5.05;;;9.60;99.90;;;;;;5011652;28;20052;-90
2023/01/07 08:08:31;;;;;;;6.75;6.05;;;9.60;99.90;;;;;;4994654;28;20400;-91
2023/01/07 08:10:57;;;;;;;7.80;5.63;;;9.60;99.90;;;;;;4994386;28;20042;-89
2023/01/07 08:13:23;;;;;;;7.05;5.60;;;9.60;99.90;;;;;;5013562;28;20096;-91
2023/01/07 08:15:49;;;;;;;8.55;5.70;;;9.60;99.90;;;;;;5007880;28;20060;-90
2023/01/07 08:18:14;;;;;;;6.18;4.65;;;9.60;99.90;;;;;;5012579;28;20165;-90
2023/01/07 08:20:40;;;;;;;6.78;5.10;;;11.30;99.90;;;;;;4995468;28;20041;-91
2023/01/07 08:23:07;;;;;;;5.63;5.00;;;9.70;99.90;;;;;;5010945;28;20115;-90
2023/01/07 08:25:34;;;;;;;6.38;5.57;;;9.70;99.90;;;;;;4994861;28;20054;-87
2023/01/07 08:28:00;;;;;;;5.70;5.10;;;9.70;99.90;;;;;;4992270;28;20045;-86
2023/01/07 08:30:27;;;;;;;7.22;5.30;;;9.70;99.90;;;;;;4993261;28;20156;-90
2023/01/07 08:32:53;;;;;;;6.63;5.88;;;9.50;99.90;;;;;;5009254;28;20064;-88
2023/01/07 08:35:20;;;;;;;6.63;5.63;;;9.50;99.90;;;;;;5009492;28;20041;-90
2023/01/07 08:37:45;;;;;;;7.60;6.20;;;9.50;99.90;;;;;;5013939;28;20049;-91
2023/01/07 08:40:12;;;;;;;6.45;5.85;;;9.50;99.90;;;;;;5013198;28;20058;-88
2023/01/07 08:42:39;;;;;;;7.22;5.60;;;9.40;99.90;;;;;;5011877;28;20132;-88
2023/01/07 08:45:07;;;;;;;8.50;5.90;;;9.10;99.90;;;;;;5028788;28;20046;-88
2023/01/07 08:47:32;;;;;;;8.55;5.97;;;9.40;99.90;;;;;;5029681;28;20782;-87
2023/01/07 08:49:58;;;;;;;8.60;6.05;;;9.30;99.90;;;;;;5025828;28;20084;-88
2023/01/07 08:52:24;;;;;;;7.90;5.75;;;9.40;99.90;;;;;;5028506;28;20042;-90
2023/01/07 08:54:50;;;;;;;5.47;4.68;;;9.30;99.90;;;;;;5013198;28;20088;-89
2023/01/07 08:57:17;;;;;;;7.35;5.03;;;9.20;99.90;;;;;;5028099;28;20491;-89
2023/01/07 08:59:43;;;;;;;5.90;5.22;;;9.30;99.90;;;;;;5029614;28;20126;-88
2023/01/07 09:02:18;;;;;;;6.90;5.03;;;9.20;99.90;;;;;;5029086;28;20125;-90
2023/01/07 09:04:44;;;;;;;7.85;5.43;;;9.20;99.90;;;;;;5009558;28;20037;-85
2023/01/07 09:07:11;;;;;;;5.97;5.25;;;9.30;99.90;;;;;;5007856;28;20080;-83
2023/01/07 09:09:37;;;;;;;5.65;5.15;;;9.50;99.90;;;;;;5009650;28;20048;-83
2023/01/07 09:12:06;;;;;;;5.85;4.97;;;9.20;99.90;;;;;;5008824;28;20049;-82
2023/01/07 09:14:32;;;;;;;6.10;4.78;;;9.20;99.90;;;;;;5008240;28;20062;-84
2023/01/07 09:16:57;;;;;;;5.70;4.93;;;9.10;99.90;;;;;;5007631;28;20062;-83
2023/01/07 09:19:23;;;;;;;6.07;5.47;;;9.20;99.90;;;;;;5009290;28;20034;-84
2023/01/07 09:21:50;;;;;;;6.95;4.85;;;9.20;99.90;;;;;;5008457;28;20100;-84
2023/01/07 09:24:16;;;;;;;6.53;4.88;;;9.00;99.90;;;;;;5008336;28;20057;-84
2023/01/07 09:26:42;;;;;;;5.85;4.75;;;9.40;99.90;;;;;;5008824;28;20396;-83
2023/01/07 09:29:17;;;;;;;5.72;4.85;;;8.40;99.90;;;;;;5020589;28;20041;-87
2023/01/07 09:31:43;;;;;;;5.43;4.80;;;9.40;99.90;;;;;;5027928;28;20088;-85
2023/01/07 09:34:08;;;;;;;7.93;5.15;;;9.30;99.90;;;;;;5021898;28;20084;-86
2023/01/07 09:36:34;;;;;;;7.82;4.90;;;9.30;99.90;;;;;;5021842;28;20434;-85
2023/01/07 09:39:00;;;;;;;6.18;5.07;;;9.30;99.90;;;;;;5026572;28;20073;-84
2023/01/07 09:41:43;;;;;;;6.32;5.35;;;9.40;99.90;;;;;;5018006;28;20049;-84
2023/01/07 09:44:18;;;;;;;5.10;4.60;;;9.30;99.90;;;;;;5024565;28;20077;-86
2023/01/07 09:46:46;;;;;;;5.40;4.55;;;9.60;99.90;;;;;;5016577;28;20076;-87
2023/01/07 09:49:17;;;;;;;6.05;4.60;;;9.40;99.90;;;;;;5037521;28;20049;-89
2023/01/07 09:52:04;;;;;;;5.93;4.25;;;9.40;99.90;;;;;;5012232;28;20438;-89
2023/01/07 09:54:33;;;;;;;4.85;4.38;;;9.40;99.90;;;;;;5008605;28;20065;-89
2023/01/07 09:56:59;;;;;;;5.35;4.57;;;9.50;99.90;;;;;;5011973;28;20056;-90
2023/01/07 09:59:24;;;;;;;5.10;4.60;;;9.50;99.90;;;;;;5025539;28;20365;-90
2023/01/07 10:02:34;;;;;;;5.60;5.00;;;9.50;99.90;;;;;;5019177;28;20051;-90
2023/01/07 10:05:33;;;;;;;4.90;4.40;;;9.60;99.90;;;;;;5009366;28;20384;-89
2023/01/07 10:08:29;;;;;;;7.28;4.97;;;9.90;99.90;;;;;;5010526;28;20061;-91
2023/01/07 10:11:31;;;;;;;5.45;4.25;;;9.80;99.90;;;;;;5015689;28;20049;-90
2023/01/07 10:14:20;;;;;;;5.15;4.10;;;9.90;99.90;;;;;;5029072;28;20041;-88
2023/01/07 10:17:05;;;;;;;5.85;4.22;;;9.70;99.90;;;;;;5014087;28;20457;-88
2023/01/07 10:19:52;;;;;;;4.20;3.13;;;10.00;99.90;;;;;;5037381;28;20079;-88
2023/01/07 10:22:24;;;;;;;4.18;3.42;;;10.30;99.90;;;;;;5025816;28;20060;-87
2023/01/07 10:24:56;;;;;;;3.42;3.13;;;10.10;99.90;;;;;;5027858;28;20053;-86
2023/01/07 10:27:39;;;;;;;3.47;3.00;;;9.50;99.90;;;;;;5029831;28;20038;-95
2023/01/07 10:30:10;;;;;;;3.08;2.83;;;10.70;99.90;;;;;;5011941;28;20095;-91
2023/01/07 10:32:36;;;;;;;4.45;2.70;;;10.30;99.90;;;;;;5011740;28;20061;-91
2023/01/07 10:35:03;;;;;;;3.20;2.90;;;10.20;99.90;;;;;;5029426;28;20396;-92
2023/01/07 10:37:35;;;;;;;2.97;2.50;;;10.40;99.90;;;;;;5012848;28;20408;-93
2023/01/07 10:40:44;;;;;;;2.70;2.40;;;10.20;99.90;;;;;;5014019;28;20049;-87
2023/01/07 10:43:20;;;;;;;2.92;2.72;;;10.40;99.90;;;;;;5013577;28;20076;-90
2023/01/07 10:46:08;;;;;;;2.88;2.63;;;12.10;99.90;;;;;;5027887;28;20045;-90
2023/01/07 10:48:40;;;;;;;2.38;2.17;;;10.50;99.90;;;;;;5028192;28;20356;-93
2023/01/07 10:51:22;;;;;;;3.63;2.50;;;10.60;99.90;;;;;;5013174;28;20103;-94
2023/01/07 10:54:18;;;;;;;2.65;2.40;;;10.60;99.90;;;;;;5030840;28;20056;-90
2023/01/07 10:56:49;;;;;;;2.95;2.30;;;10.70;99.90;;;;;;5015178;28;20132;-93
2023/01/07 10:59:20;;;;;;;2.63;2.33;;;11.00;99.90;;;;;;5009628;28;20049;-90
2023/01/07 11:01:56;;;;;;;2.40;2.20;;;10.60;99.90;;;;;;5005550;28;20038;-90
2023/01/07 11:04:23;;;;;;;2.63;2.42;;;10.90;99.90;;;;;;4992760;28;20535;-92
2023/01/07 11:06:56;;;;;;;3.10;2.78;;;10.60;99.90;;;;;;4992865;28;20037;-91
2023/01/07 11:09:28;;;;;;;2.50;2.30;;;10.40;99.90;;;;;;5010046;28;20046;-92
2023/01/07 11:11:56;;;;;;;2.42;2.22;;;10.60;99.90;;;;;;5013177;28;20041;-93
2023/01/07 11:14:27;;;;;;;2.25;2.05;;;11.90;99.90;;;;;;5007745;28;20147;-91
2023/01/07 11:17:01;;;;;;;2.42;2.22;;;10.30;99.90;;;;;;5019312;28;20215;-91
2023/01/07 11:19:43;;;;;;;4.35;2.30;;;10.60;99.90;;;;;;5028253;28;20179;-90
2023/01/07 11:22:29;;;;;;;3.20;2.30;;;10.60;99.90;;;;;;5004409;28;20451;-90
2023/01/07 11:25:00;;;;;;;2.63;1.88;;;10.50;99.90;;;;;;5002956;28;20438;-92
2023/01/07 11:27:32;;;;;;;4.05;2.22;;;10.60;99.90;;;;;;5007689;28;20049;-91
2023/01/07 11:30:00;;;;;;;;;;;12.00;99.90;;;;;;5012200;28;20133;-90
2023/01/07 11:32:29;;;;;;;3.17;2.88;;;10.50;99.90;;;;;;5005459;28;19921;-90
2023/01/07 11:35:06;;;;;;;3.90;2.40;;;10.60;99.90;;;;;;5005289;28;20045;-92
2023/01/07 11:37:37;;;;;;;3.90;2.30;;;10.80;99.90;;;;;;5021176;28;20054;-91
2023/01/07 11:40:11;;;;;;;2.95;2.65;;;10.80;99.90;;;;;;5013260;28;20104;-91
2023/01/07 11:42:50;;;;;;;2.30;2.10;;;10.80;99.90;;;;;;5030270;28;20044;-91
2023/01/07 11:45:26;;;;;;;2.15;2.05;;;10.70;99.90;;;;;;5019915;28;20049;-92
2023/01/07 11:48:00;;;;;;;3.17;1.95;;;10.80;99.90;;;;;;5006799;28;20045;-93
2023/01/07 11:50:37;;;;;;;3.50;2.30;;;11.00;99.90;;;;;;5002948;28;20078;-90
2023/01/07 11:53:15;;;;;;;3.20;2.10;;;10.90;99.90;;;;;;5002405;28;20044;-91
2023/01/07 11:55:56;;;;;;;2.50;2.30;;;10.90;99.90;;;;;;5023749;28;20473;-93
2023/01/07 11:58:23;;;;;;;3.17;2.25;;;10.90;99.90;;;;;;5032027;28;20156;-94
2023/01/07 12:01:07;;;;;;;2.90;2.13;;;11.20;99.90;;;;;;5004505;28;20096;-92
2023/01/07 12:03:39;;;;;;;2.88;2.10;;;11.00;99.90;;;;;;5026551;28;20046;-92
2023/01/07 12:06:10;;;;;;;2.53;1.88;;;11.10;99.90;;;;;;5027514;28;20561;-91
2023/01/07 12:08:48;;;;;;;3.03;1.67;;;11.00;99.90;;;;;;5018358;28;20046;-90
2023/01/07 12:11:14;;;;;;;3.47;2.30;;;11.00;99.90;;;;;;5007392;28;20944;-91
2023/01/07 12:13:46;;;;;;;2.55;1.83;;;11.00;99.90;;;;;;5019895;28;20121;-91
2023/01/07 12:16:12;;;;;;;2.13;1.90;;;11.00;99.90;;;;;;5018119;28;20044;-92
2023/01/07 12:18:54;;;;;;;3.47;1.98;;;11.00;99.90;;;;;;5008670;28;20037;-91
2023/01/07 12:21:31;;;;;;;3.65;2.00;;;11.00;99.90;;;;;;5016971;28;20100;-89
2023/01/07 12:24:22;;;;;;;2.30;2.10;;;11.00;99.90;;;;;;5027300;28;20072;-92
2023/01/07 12:27:00;;;;;;;2.72;2.00;;;11.00;99.90;;;;;;5031270;28;20045;-90
2023/01/07 12:29:46;;;;;;;2.17;1.98;;;11.00;99.90;;;;;;5014933;28;20063;-91
2023/01/07 12:32:19;;;;;;;1.95;1.75;;;10.90;99.90;;;;;;5030294;28;20088;-91
2023/01/07 12:34:56;;;;;;;3.20;2.20;;;10.90;99.90;;;;;;5029260;28;20411;-90
2023/01/07 12:37:41;;;;;;;2.78;1.98;;;10.80;99.90;;;;;;5030814;28;20081;-91
2023/01/07 12:40:21;;;;;;;3.80;2.17;;;10.80;99.90;;;;;;5005745;28;20050;-91
2023/01/07 12:42:56;;;;;;;2.17;1.90;;;10.80;99.90;;;;;;5029881;28;20037;-91
2023/01/07 12:45:38;;;;;;;2.13;1.90;;;11.50;99.90;;;;;;5012591;28;20095;-90
2023/01/07 12:48:10;;;;;;;3.38;2.30;;;10.80;99.90;;;;;;5009029;28;20049;-91
2023/01/07 12:50:41;;;;;;;2.47;1.67;;;10.90;99.90;;;;;;5010297;28;20045;-91
2023/01/07 12:53:33;;;;;;;2.72;1.92;;;10.90;99.90;;;;;;5018512;28;20045;-91
2023/01/07 12:56:14;;;;;;;2.63;1.60;;;10.90;99.90;;;;;;5015650;28;20046;-88
2023/01/07 12:59:02;;;;;;;2.35;1.73;;;10.90;99.90;;;;;;4993031;28;20081;-90
2023/01/07 13:01:46;;;;;;;2.17;1.98;;;11.00;99.90;;;;;;5009214;28;20137;-90
2023/01/07 13:04:26;;;;;;;2.08;1.88;;;10.90;99.90;;;;;;5014695;28;20135;-90
2023/01/07 13:07:07;;;;;;;2.40;1.90;;;11.00;99.90;;;;;;4993689;28;20153;-86
2023/01/07 13:09:44;;;;;;;2.55;2.05;;;11.00;99.90;;;;;;5010510;28;20085;-91